Time;durP1;ratioP1;P1;durP2;ratioP2;P2;SDS_P1;SDS_P2;PMS_P1;PMS_P2;Temp;Humidity;BMP_temperature;BMP_pressure;BME280_temperature;BME280_humidity;BME280_pressure;Samples;Min_cycle;Max_cycle;Signal;HPM_P1;HPM_P2
2023/08/05 00:00:53;;;;;;;3.97;2.10;;;;;;;26.47;59.21;99474.97;5092834;28;20417;-68
2023/08/05 00:03:22;;;;;;;13.50;2.83;;;;;;;26.43;60.20;99424.47;5092877;28;20040;-66
2023/08/05 00:05:51;;;;;;;11.98;2.60;;;;;;;26.38;61.30;99383.31;5092790;28;20500;-66
2023/08/05 00:08:20;;;;;;;25.45;3.60;;;;;;;26.31;61.90;99259.44;5092114;28;20048;-66
2023/08/05 00:10:48;;;;;;;30.63;4.53;;;;;;;26.25;63.17;99160.88;5092887;28;20063;-67
2023/08/05 00:13:16;;;;;;;47.03;5.28;;;;;;;26.23;64.17;99116.50;5092654;28;20048;-67
2023/08/05 00:15:44;;;;;;;34.28;4.90;;;;;;;26.20;64.94;99130.59;5092576;28;20404;-66
2023/08/05 00:18:13;;;;;;;30.05;4.75;;;;;;;26.19;65.67;99167.19;5092391;28;20048;-70
2023/08/05 00:20:41;;;;;;;27.90;4.38;;;;;;;26.20;65.52;99163.41;5092424;28;20056;-70
2023/08/05 00:23:11;;;;;;;27.45;4.60;;;;;;;26.16;65.21;99164.06;5092726;28;20090;-70
2023/08/05 00:25:39;;;;;;;19.85;3.90;;;;;;;26.15;65.39;99157.78;5092768;28;20051;-69
2023/08/05 00:28:07;;;;;;;19.48;3.58;;;;;;;26.14;65.22;99164.28;5092467;28;20044;-69
2023/08/05 00:30:35;;;;;;;16.15;3.38;;;;;;;26.13;65.22;99181.72;5092217;28;20055;-69
2023/08/05 00:33:03;;;;;;;19.13;3.90;;;;;;;26.12;65.15;99203.81;5092570;28;20473;-70
2023/08/05 00:35:32;;;;;;;18.95;3.55;;;;;;;26.11;65.07;99167.44;5092593;28;20408;-69
2023/08/05 00:38:00;;;;;;;13.77;3.15;;;;;;;26.10;65.53;99152.13;5092224;28;20500;-69
2023/08/05 00:40:35;;;;;;;14.20;3.17;;;;;;;26.06;66.23;99167.28;5092588;28;20431;-69
2023/08/05 00:43:03;;;;;;;18.38;3.53;;;;;;;26.05;66.32;99195.63;5092176;28;20617;-69
2023/08/05 00:45:33;;;;;;;14.15;2.90;;;;;;;26.03;65.82;99188.72;5092321;28;20408;-70
2023/08/05 00:48:01;;;;;;;15.45;3.47;;;;;;;26.02;66.08;99217.94;5092314;28;20093;-70
2023/08/05 00:50:32;;;;;;;16.10;3.20;;;;;;;26.02;65.96;99237.06;5092063;28;20511;-70
2023/08/05 00:53:02;;;;;;;11.38;3.53;;;;;;;26.00;65.99;99206.41;5091958;28;20477;-70
2023/08/05 00:55:33;;;;;;;11.05;3.40;;;;;;;26.00;65.74;99140.81;5091994;28;20047;-70
2023/08/05 00:58:01;;;;;;;10.48;2.80;;;;;;;26.00;65.81;99138.09;5091389;28;20587;-69
2023/08/05 01:00:30;;;;;;;9.63;2.90;;;;;;;26.01;66.27;99196.31;5092036;28;20075;-70
2023/08/05 01:02:58;;;;;;;11.00;2.50;;;;;;;26.00;66.42;99261.03;5092030;28;20091;-70
2023/08/05 01:05:31;;;;;;;8.95;2.60;;;;;;;26.01;65.90;99231.81;5091832;28;20051;-70
2023/08/05 01:08:01;;;;;;;6.13;2.38;;;;;;;26.00;66.65;99140.81;5091543;28;20052;-70
2023/08/05 01:10:29;;;;;;;9.95;2.70;;;;;;;26.00;66.52;99135.38;5091647;28;20044;-70
2023/08/05 01:12:59;;;;;;;9.57;2.95;;;;;;;25.99;66.64;99130.97;5091268;28;20083;-70
2023/08/05 01:15:28;;;;;;;8.18;2.72;;;;;;;25.98;66.82;99148.41;5091791;28;20139;-70
2023/08/05 01:17:58;;;;;;;6.57;2.47;;;;;;;25.97;66.51;99168.59;5091677;28;20048;-70
2023/08/05 01:20:34;;;;;;;9.55;2.70;;;;;;;25.97;66.89;99163.13;5091596;28;20049;-69
2023/08/05 01:23:11;;;;;;;6.43;2.58;;;;;;;25.96;66.72;99153.22;5091643;28;20073;-69
2023/08/05 01:25:42;;;;;;;7.47;2.65;;;;;;;25.96;66.59;99124.03;5091871;28;20135;-70
2023/08/05 01:28:10;;;;;;;6.03;2.42;;;;;;;25.95;66.62;99107.84;5091562;28;20051;-70
2023/08/05 01:30:41;;;;;;;7.03;2.35;;;;;;;25.94;66.89;99092.50;5091533;28;20048;-70
2023/08/05 01:33:09;;;;;;;4.68;2.33;;;;;;;25.94;67.06;99076.13;5091490;28;20650;-70
2023/08/05 01:35:38;;;;;;;5.63;2.50;;;;;;;25.94;66.99;99057.00;5091410;28;20044;-70
2023/08/05 01:38:06;;;;;;;11.27;2.65;;;;;;;25.92;67.05;99059.13;5091522;28;20087;-69
2023/08/05 01:40:34;;;;;;;5.15;2.20;;;;;;;25.93;67.03;99060.78;5091618;28;20048;-69
2023/08/05 01:43:03;;;;;;;6.35;2.50;;;;;;;25.92;67.32;99061.84;5091422;28;20431;-69
2023/08/05 01:45:35;;;;;;;5.97;2.50;;;;;;;25.92;67.11;99073.63;5091446;28;20484;-69
2023/08/05 01:48:04;;;;;;;5.50;2.58;;;;;;;25.92;67.07;99089.16;5091392;28;20101;-69
2023/08/05 01:50:33;;;;;;;4.50;2.42;;;;;;;25.92;67.39;99192.97;5091414;28;20044;-70
2023/08/05 01:53:01;;;;;;;6.97;2.75;;;;;;;25.90;67.99;99197.81;5091394;28;20048;-68
2023/08/05 01:55:29;;;;;;;5.70;2.50;;;;;;;25.90;68.70;99156.84;5091369;28;20405;-69
2023/08/05 01:57:57;;;;;;;8.05;2.58;;;;;;;25.86;67.90;99090.88;5091305;28;20044;-70
2023/08/05 02:00:27;;;;;;;7.35;2.50;;;;;;;25.86;67.92;99035.41;5091203;28;20082;-69
2023/08/05 02:02:55;;;;;;;4.88;2.42;;;;;;;25.85;68.37;99055.59;5091504;28;20048;-68
2023/08/05 02:05:26;;;;;;;6.18;2.42;;;;;;;25.83;67.98;99063.16;5091391;28;20135;-69
2023/08/05 02:07:54;;;;;;;4.55;2.50;;;;;;;25.85;68.56;99061.06;5090265;28;20048;-68
2023/08/05 02:10:23;;;;;;;4.20;2.30;;;;;;;25.83;68.04;99041.31;5091232;28;20045;-69
2023/08/05 02:12:51;;;;;;;5.40;2.30;;;;;;;25.83;68.10;99053.09;5091198;28;20044;-70
2023/08/05 02:15:22;;;;;;;5.35;2.45;;;;;;;25.83;68.73;99074.94;5090959;28;20040;-68
2023/08/05 02:17:51;;;;;;;4.30;2.33;;;;;;;25.83;68.31;99063.16;5091233;28;20095;-68
2023/08/05 02:20:20;;;;;;;4.18;2.47;;;;;;;25.83;68.24;99054.97;5090852;28;20515;-68
2023/08/05 02:22:48;;;;;;;6.78;2.38;;;;;;;25.83;68.63;99068.63;5091100;28;20044;-67
2023/08/05 02:25:16;;;;;;;5.22;2.47;;;;;;;25.82;68.40;99067.78;5094467;28;20048;-68
2023/08/05 02:27:45;;;;;;;4.63;2.17;;;;;;;25.81;68.69;99055.19;5094599;28;20040;-68
2023/08/05 02:30:17;;;;;;;3.78;2.25;;;;;;;25.81;68.48;99048.91;5094681;28;20484;-69
2023/08/05 02:32:45;;;;;;;4.32;2.30;;;;;;;25.81;68.33;99037.97;5094582;28;20499;-70
2023/08/05 02:35:15;;;;;;;5.15;2.47;;;;;;;25.79;68.52;99013.63;5094762;28;20384;-69
2023/08/05 02:37:44;;;;;;;4.93;2.30;;;;;;;25.78;69.19;99011.13;5094600;28;20043;-68
2023/08/05 02:40:12;;;;;;;4.70;2.30;;;;;;;25.79;69.00;99007.31;5094351;28;20055;-68
2023/08/05 02:42:40;;;;;;;4.63;2.35;;;;;;;25.77;68.92;98995.75;5094479;28;20561;-69
2023/08/05 02:45:09;;;;;;;5.53;2.53;;;;;;;25.76;68.45;98981.28;5094722;28;20055;-70
2023/08/05 02:47:37;;;;;;;4.65;2.33;;;;;;;25.79;69.05;99001.88;5094703;28;20123;-69
2023/08/05 02:50:08;;;;;;;4.53;2.30;;;;;;;25.75;68.54;99012.38;5094440;28;20047;-69
2023/08/05 02:52:39;;;;;;;3.80;2.40;;;;;;;25.78;68.85;99041.16;5094394;28;20040;-70
2023/08/05 02:55:07;;;;;;;3.78;2.15;;;;;;;25.78;68.78;99049.34;5094226;28;20040;-69
2023/08/05 02:57:36;;;;;;;4.72;2.40;;;;;;;25.77;69.15;99062.16;5094446;28;20055;-70
2023/08/05 03:00:07;;;;;;;4.40;2.33;;;;;;;25.77;68.99;99058.56;5094193;28;20404;-69
2023/08/05 03:02:35;;;;;;;3.95;2.10;;;;;;;25.76;69.22;99026.88;5094233;28;20389;-68
2023/08/05 03:05:04;;;;;;;5.18;2.20;;;;;;;25.74;68.98;99007.13;5094015;28;20063;-68
2023/08/05 03:07:36;;;;;;;4.47;2.20;;;;;;;25.75;69.56;98997.88;5094043;28;20134;-68
2023/08/05 03:10:07;;;;;;;3.35;1.90;;;;;;;25.74;69.34;99004.41;5093900;28;20080;-69
2023/08/05 03:12:35;;;;;;;3.55;2.45;;;;;;;25.72;69.46;99017.44;5094063;28;20055;-68
2023/08/05 03:15:04;;;;;;;4.57;2.38;;;;;;;25.73;69.54;99030.03;5094093;28;20048;-68
2023/08/05 03:17:34;;;;;;;4.05;2.10;;;;;;;25.73;69.36;99040.97;5092566;28;20044;-69
2023/08/05 03:20:04;;;;;;;3.67;1.73;;;;;;;25.73;69.65;99040.97;5093734;28;20044;-68
2023/08/05 03:22:32;;;;;;;3.72;2.15;;;;;;;25.73;69.31;99084.66;5093956;28;20109;-69
2023/08/05 03:25:06;;;;;;;4.90;2.35;;;;;;;25.73;70.08;99122.88;5093941;28;20044;-68
2023/08/05 03:27:35;;;;;;;5.13;2.50;;;;;;;25.71;70.45;99146.84;5093843;28;20123;-69
2023/08/05 03:30:04;;;;;;;4.10;2.58;;;;;;;25.68;70.70;99153.56;5093708;28;20052;-68
2023/08/05 03:32:33;;;;;;;3.95;2.35;;;;;;;25.64;70.85;99125.84;5092246;28;20083;-69
2023/08/05 03:35:01;;;;;;;4.53;2.10;;;;;;;25.63;70.43;99052.34;5093122;28;20105;-69
2023/08/05 03:37:30;;;;;;;4.18;2.38;;;;;;;25.63;70.54;99035.94;5093652;28;20090;-67
2023/08/05 03:39:58;;;;;;;4.93;2.50;;;;;;;25.62;70.45;99045.19;5093436;28;20044;-69
2023/08/05 03:42:28;;;;;;;4.00;2.38;;;;;;;25.62;70.68;99067.88;5093642;28;20048;-68
2023/08/05 03:44:56;;;;;;;3.50;2.28;;;;;;;25.53;70.52;99069.19;5093242;28;20076;-68
2023/08/05 03:47:24;;;;;;;4.57;2.25;;;;;;;25.62;70.58;99111.56;5093396;28;20137;-69
2023/08/05 03:49:52;;;;;;;4.60;2.45;;;;;;;25.63;70.69;99126.06;5093071;28;20139;-69
2023/08/05 03:52:20;;;;;;;3.83;2.35;;;;;;;25.63;70.74;99131.50;5093331;28;20044;-69
2023/08/05 03:54:48;;;;;;;3.03;2.10;;;;;;;25.60;70.70;99116.41;5093265;28;20048;-69
2023/08/05 03:57:16;;;;;;;4.28;2.38;;;;;;;25.61;71.10;99114.53;5093105;28;20044;-69
2023/08/05 03:59:47;;;;;;;4.00;2.40;;;;;;;25.59;71.01;99072.94;5092876;28;20413;-69
2023/08/05 04:02:15;;;;;;;4.03;2.40;;;;;;;25.59;70.78;99057.41;5093166;28;20077;-69
2023/08/05 04:04:43;;;;;;;3.92;2.30;;;;;;;25.59;70.64;99062.88;5093140;28;20075;-69
2023/08/05 04:07:12;;;;;;;4.45;2.40;;;;;;;25.58;71.22;99072.13;5091777;28;20424;-69
2023/08/05 04:09:41;;;;;;;4.50;2.50;;;;;;;25.60;70.72;99082.81;5092761;28;20142;-69
2023/08/05 04:12:14;;;;;;;4.82;2.42;;;;;;;25.60;71.04;99091.84;5092690;28;20507;-69
2023/08/05 04:14:44;;;;;;;3.85;2.45;;;;;;;25.57;70.81;99089.53;5092819;28;20074;-69
2023/08/05 04:17:15;;;;;;;5.05;2.50;;;;;;;25.58;70.83;99083.03;5092860;28;20044;-69
2023/08/05 04:19:45;;;;;;;4.82;2.80;;;;;;;25.59;70.58;99078.41;5092567;28;20073;-69
2023/08/05 04:22:13;;;;;;;4.35;2.75;;;;;;;25.60;71.25;99075.47;5092632;28;20135;-68
2023/08/05 04:24:44;;;;;;;3.80;2.40;;;;;;;25.59;70.79;99073.78;5092607;28;20047;-68
2023/08/05 04:27:13;;;;;;;3.85;2.50;;;;;;;25.60;70.79;99069.16;5092817;28;20143;-68
2023/08/05 04:29:42;;;;;;;3.88;2.47;;;;;;;25.60;70.77;99075.47;5092480;28;20062;-69
2023/08/05 04:32:10;;;;;;;3.78;2.30;;;;;;;25.59;70.79;99076.50;5092641;28;20416;-69
2023/08/05 04:34:40;;;;;;;3.60;2.25;;;;;;;25.59;70.88;99068.31;5092374;28;20055;-69
2023/08/05 04:37:18;;;;;;;4.10;2.30;;;;;;;25.59;70.89;99065.59;5092402;28;20055;-69
2023/08/05 04:39:47;;;;;;;4.10;2.58;;;;;;;25.58;71.39;99061.19;5092273;28;20044;-69
2023/08/05 04:42:16;;;;;;;3.58;2.28;;;;;;;25.58;71.17;99061.19;5092252;28;20606;-69
2023/08/05 04:44:45;;;;;;;4.22;2.42;;;;;;;25.60;71.17;99058.25;5092175;28;20040;-69
2023/08/05 04:47:13;;;;;;;3.55;2.10;;;;;;;25.59;70.98;99065.59;5091433;28;20080;-69
2023/08/05 04:49:44;;;;;;;3.72;2.30;;;;;;;25.58;71.29;99066.66;5092162;28;20147;-69
2023/08/05 04:52:13;;;;;;;5.35;2.65;;;;;;;25.59;71.33;99062.88;5091014;28;20048;-69
2023/08/05 04:54:43;;;;;;;5.53;2.60;;;;;;;25.58;70.92;99065.81;5091997;28;20048;-69
2023/08/05 04:57:12;;;;;;;4.13;2.40;;;;;;;25.59;71.05;99062.03;5092256;28;20052;-69
2023/08/05 04:59:40;;;;;;;4.03;2.17;;;;;;;25.59;71.29;99068.31;5092016;28;20134;-69
2023/08/05 05:02:09;;;;;;;3.75;2.50;;;;;;;25.57;71.13;99067.69;5091886;28;20048;-69
2023/08/05 05:04:37;;;;;;;3.47;2.22;;;;;;;25.58;71.23;99065.81;5091807;28;20074;-69
2023/08/05 05:07:06;;;;;;;4.13;2.55;;;;;;;25.58;71.42;99077.56;5091484;28;20044;-69
2023/08/05 05:09:37;;;;;;;3.88;2.30;;;;;;;25.58;71.42;99060.34;5090041;28;20052;-70
2023/08/05 05:12:06;;;;;;;3.42;2.53;;;;;;;25.54;71.64;99059.94;5089793;28;20449;-69
2023/08/05 05:14:34;;;;;;;4.75;2.65;;;;;;;25.57;71.66;99059.50;5090071;28;20501;-69
2023/08/05 05:17:03;;;;;;;3.88;2.55;;;;;;;25.57;71.71;99064.94;5089933;28;20044;-69
2023/08/05 05:19:31;;;;;;;3.85;2.60;;;;;;;25.58;71.76;99058.47;5090087;28;20044;-69
2023/08/05 05:22:00;;;;;;;3.50;2.28;;;;;;;25.58;71.63;99069.38;5089923;28;20059;-69
2023/08/05 05:24:31;;;;;;;4.50;2.50;;;;;;;25.59;71.96;99062.88;5089537;28;20132;-69
2023/08/05 05:26:59;;;;;;;3.50;2.50;;;;;;;25.59;71.95;99051.09;5089877;28;20101;-69
2023/08/05 05:29:29;;;;;;;3.67;2.58;;;;;;;25.59;71.58;99042.91;5088379;28;20048;-67
2023/08/05 05:31:58;;;;;;;5.53;2.45;;;;;;;25.58;71.64;99043.97;5089517;28;20063;-68
2023/08/05 05:34:26;;;;;;;3.25;2.20;;;;;;;25.60;71.94;99047.31;5089907;28;20044;-68
2023/08/05 05:36:54;;;;;;;4.63;2.47;;;;;;;25.58;71.89;99036.63;5090091;28;20083;-69
2023/08/05 05:39:22;;;;;;;4.22;2.60;;;;;;;25.58;71.69;99041.25;5089818;28;20070;-69
2023/08/05 05:41:52;;;;;;;4.05;2.55;;;;;;;25.58;71.69;99044.81;5089758;28;20051;-69
2023/08/05 05:44:20;;;;;;;3.75;2.42;;;;;;;25.60;71.77;99053.63;5089670;28;20058;-68
2023/08/05 05:46:48;;;;;;;3.45;2.55;;;;;;;25.60;71.60;99041.84;5090008;28;20127;-69
2023/08/05 05:49:18;;;;;;;4.10;2.72;;;;;;;25.60;72.29;99056.34;5089666;28;20047;-69
2023/08/05 05:51:47;;;;;;;3.90;2.60;;;;;;;25.60;72.14;99053.63;5089445;28;20048;-70
2023/08/05 05:54:18;;;;;;;4.68;2.60;;;;;;;25.61;71.44;99049.00;5089917;28;20412;-69
2023/08/05 05:56:46;;;;;;;3.85;2.40;;;;;;;25.61;71.95;99043.53;5089537;28;20044;-69
2023/08/05 05:59:16;;;;;;;4.47;2.70;;;;;;;25.62;72.19;99045.19;5092064;28;20191;-69
2023/08/05 06:01:44;;;;;;;4.18;2.80;;;;;;;25.62;71.94;99040.56;5094040;28;20052;-69
2023/08/05 06:04:13;;;;;;;4.25;2.50;;;;;;;25.62;72.02;99051.50;5093670;28;20542;-70
2023/08/05 06:06:41;;;;;;;6.25;2.60;;;;;;;25.62;72.36;99051.50;5093892;28;20055;-69
2023/08/05 06:09:10;;;;;;;3.95;2.70;;;;;;;25.63;72.32;99058.63;5093515;28;20140;-68
2023/08/05 06:11:38;;;;;;;4.60;2.60;;;;;;;25.64;71.85;99060.31;5093388;28;20437;-66
2023/08/05 06:14:06;;;;;;;4.68;2.55;;;;;;;25.66;71.97;99060.91;5093135;28;20444;-69
2023/08/05 06:16:36;;;;;;;4.68;2.75;;;;;;;25.67;72.11;99059.88;5093323;28;20044;-69
2023/08/05 06:19:04;;;;;;;3.63;2.58;;;;;;;25.67;72.15;99054.41;5092916;28;20372;-69
2023/08/05 06:21:33;;;;;;;4.78;2.60;;;;;;;25.67;72.44;99054.41;5093468;28;20136;-69
2023/08/05 06:24:06;;;;;;;4.68;2.78;;;;;;;25.68;72.51;99056.09;5093158;28;20457;-70
2023/08/05 06:26:34;;;;;;;5.28;2.72;;;;;;;25.68;72.53;99056.09;5093181;28;20084;-68
2023/08/05 06:29:03;;;;;;;5.10;2.70;;;;;;;25.67;72.24;99068.06;5093631;28;20048;-69
2023/08/05 06:31:31;;;;;;;3.78;2.42;;;;;;;25.68;72.53;99069.75;5093436;28;20048;-69
2023/08/05 06:34:02;;;;;;;3.78;2.40;;;;;;;25.69;72.04;99068.69;5093078;28;20417;-69
2023/08/05 06:36:33;;;;;;;4.32;2.60;;;;;;;25.71;72.71;99070.38;5092801;28;20044;-68
2023/08/05 06:39:02;;;;;;;3.67;2.40;;;;;;;25.67;72.74;99070.81;5093063;28;20101;-69
2023/08/05 06:41:31;;;;;;;3.83;2.50;;;;;;;25.71;72.44;99076.69;5093010;28;20087;-69
2023/08/05 06:43:59;;;;;;;4.88;2.47;;;;;;;25.71;72.91;99075.84;5092826;28;20044;-68
2023/08/05 06:46:27;;;;;;;4.15;2.70;;;;;;;25.71;72.40;99065.78;5092927;28;20051;-68
2023/08/05 06:48:55;;;;;;;4.68;2.60;;;;;;;25.72;72.69;99055.69;5092706;28;20074;-67
2023/08/05 06:51:25;;;;;;;3.65;2.55;;;;;;;25.71;72.48;99054.84;5093103;28;20057;-67
2023/08/05 06:53:53;;;;;;;3.97;2.22;;;;;;;25.71;72.79;99060.31;5093146;28;20048;-67
2023/08/05 06:56:21;;;;;;;3.63;2.45;;;;;;;25.74;72.72;99056.28;5092998;28;20573;-69
2023/08/05 06:58:49;;;;;;;4.45;2.45;;;;;;;25.74;73.16;99059.03;5092742;28;20052;-70
2023/08/05 07:01:18;;;;;;;3.80;2.33;;;;;;;25.73;72.77;99062.81;5092358;28;20420;-69
2023/08/05 07:03:46;;;;;;;3.90;2.47;;;;;;;25.75;72.96;99067.00;5092674;28;20070;-69
2023/08/05 07:06:15;;;;;;;3.97;2.38;;;;;;;25.76;72.74;99054.16;5092528;28;20491;-69
2023/08/05 07:08:44;;;;;;;4.18;2.50;;;;;;;25.75;72.58;99057.97;5092311;28;20051;-69
2023/08/05 07:11:15;;;;;;;3.85;2.60;;;;;;;25.76;73.10;99056.91;5091571;28;20048;-69
2023/08/05 07:13:44;;;;;;;3.95;2.50;;;;;;;25.76;72.52;99051.44;5092285;28;20059;-69
2023/08/05 07:16:12;;;;;;;4.13;2.60;;;;;;;25.76;72.98;99040.53;5092269;28;20078;-69
2023/08/05 07:18:40;;;;;;;3.65;2.60;;;;;;;25.77;72.80;99047.66;5092633;28;20103;-69
2023/08/05 07:21:09;;;;;;;3.90;2.30;;;;;;;25.77;72.63;99047.66;5092353;28;20117;-68
2023/08/05 07:23:37;;;;;;;3.67;2.42;;;;;;;25.79;72.62;99051.03;5092175;28;20059;-69
2023/08/05 07:26:06;;;;;;;4.38;2.65;;;;;;;25.80;72.54;99052.69;5092104;28;20083;-69
2023/08/05 07:28:34;;;;;;;3.95;2.65;;;;;;;25.80;72.29;99050.81;5092186;28;20052;-69
2023/08/05 07:31:04;;;;;;;3.88;2.55;;;;;;;25.81;72.43;99048.91;5092121;28;20058;-69
2023/08/05 07:33:33;;;;;;;4.47;2.55;;;;;;;25.81;72.97;99049.75;5091888;28;20044;-69
2023/08/05 07:36:08;;;;;;;3.38;2.30;;;;;;;25.83;72.78;99052.25;5091831;28;20051;-69
2023/08/05 07:38:39;;;;;;;5.03;2.58;;;;;;;25.81;72.69;99049.75;5090259;28;20052;-69
2023/08/05 07:41:15;;;;;;;3.28;2.40;;;;;;;25.82;72.91;99056.88;5091575;28;20054;-70
2023/08/05 07:43:44;;;;;;;4.57;2.80;;;;;;;25.83;73.07;99053.09;5091726;28;20067;-69
2023/08/05 07:46:13;;;;;;;3.88;2.40;;;;;;;25.85;72.54;99058.31;5092101;28;20048;-69
2023/08/05 07:48:45;;;;;;;3.88;2.65;;;;;;;25.84;72.76;99048.44;5091952;28;20071;-69
2023/08/05 07:51:14;;;;;;;3.70;2.60;;;;;;;25.86;72.92;99062.72;5091779;28;20063;-69
2023/08/05 07:53:42;;;;;;;4.47;2.55;;;;;;;25.86;72.83;99051.78;5091626;28;20044;-69
2023/08/05 07:56:10;;;;;;;3.65;2.72;;;;;;;25.86;72.64;99062.72;5091563;28;20059;-69
2023/08/05 07:58:42;;;;;;;3.88;2.38;;;;;;;25.88;72.78;99060.63;5091334;28;20452;-70
2023/08/05 08:01:12;;;;;;;3.75;2.53;;;;;;;25.87;73.12;99057.06;5091559;28;20043;-70
2023/08/05 08:03:41;;;;;;;4.60;2.53;;;;;;;25.87;72.96;99065.25;5091167;28;20036;-69
2023/08/05 08:06:10;;;;;;;4.55;2.50;;;;;;;25.89;73.04;99078.69;5091043;28;20048;-69
2023/08/05 08:08:38;;;;;;;5.13;2.63;;;;;;;25.88;73.44;99077.03;5090975;28;20201;-69
2023/08/05 08:11:06;;;;;;;3.65;2.30;;;;;;;25.89;73.50;99078.69;5091390;28;20102;-69
2023/08/05 08:13:35;;;;;;;3.85;2.67;;;;;;;25.87;73.14;99075.34;5091413;28;20055;-69
2023/08/05 08:16:05;;;;;;;3.42;2.33;;;;;;;25.89;72.96;99076.78;5090994;28;20456;-69
2023/08/05 08:18:33;;;;;;;3.92;2.80;;;;;;;25.88;72.94;99075.13;5089258;28;20044;-72
2023/08/05 08:21:03;;;;;;;3.63;2.47;;;;;;;25.90;73.28;99074.91;5089246;28;20055;-68
2023/08/05 08:23:32;;;;;;;3.90;2.53;;;;;;;25.90;73.52;99069.44;5089883;28;20070;-69
2023/08/05 08:26:00;;;;;;;3.50;2.60;;;;;;;25.91;73.83;99074.69;5089988;28;20083;-70
2023/08/05 08:28:28;;;;;;;3.90;2.58;;;;;;;25.92;73.52;99070.06;5089976;28;20562;-69
2023/08/05 08:31:01;;;;;;;4.78;2.63;;;;;;;25.92;74.05;99062.69;5090486;28;20051;-69
2023/08/05 08:33:30;;;;;;;4.07;2.90;;;;;;;25.92;74.23;99067.31;5090257;28;20113;-70
2023/08/05 08:35:58;;;;;;;4.60;3.00;;;;;;;25.92;73.86;99073.63;5091042;28;20076;-70
2023/08/05 08:38:27;;;;;;;3.78;2.72;;;;;;;25.92;73.85;99075.50;5090836;28;20044;-70
2023/08/05 08:40:58;;;;;;;5.20;3.15;;;;;;;25.94;74.43;99085.16;5090747;28;20048;-70
2023/08/05 08:43:28;;;;;;;4.20;2.75;;;;;;;25.92;73.73;99089.16;5090841;28;20048;-69
2023/08/05 08:45:57;;;;;;;4.40;3.30;;;;;;;25.94;74.53;99103.44;5090694;28;20048;-69
2023/08/05 08:48:27;;;;;;;3.85;3.20;;;;;;;25.92;74.22;99100.94;5090564;28;20148;-69
2023/08/05 08:50:59;;;;;;;4.93;2.97;;;;;;;25.94;74.86;99114.38;5090485;28;20056;-69
2023/08/05 08:53:28;;;;;;;4.13;2.97;;;;;;;25.93;75.01;99102.59;5090563;28;20044;-69
2023/08/05 08:55:59;;;;;;;4.05;2.92;;;;;;;25.94;74.69;99101.53;5090257;28;20091;-69
2023/08/05 08:58:28;;;;;;;4.68;3.10;;;;;;;25.94;74.68;99103.44;5090530;28;20362;-69
2023/08/05 09:01:00;;;;;;;5.03;2.97;;;;;;;25.94;74.87;99108.91;5090319;28;20124;-70
2023/08/05 09:03:33;;;;;;;6.03;2.88;;;;;;;25.94;74.71;99109.75;5090562;28;20056;-69
2023/08/05 09:06:04;;;;;;;4.82;3.20;;;;;;;25.95;74.82;99103.22;5090596;28;20419;-69
2023/08/05 09:08:34;;;;;;;4.05;3.10;;;;;;;25.94;74.89;99103.44;5090473;28;20110;-69
2023/08/05 09:11:05;;;;;;;5.15;3.33;;;;;;;25.96;75.06;99115.84;5090214;28;20044;-69
2023/08/05 09:13:33;;;;;;;4.22;3.00;;;;;;;25.95;75.51;99105.94;5090141;28;20078;-69
2023/08/05 09:16:02;;;;;;;6.10;3.30;;;;;;;25.95;75.18;99099.66;5090459;28;20050;-69
2023/08/05 09:18:31;;;;;;;4.60;3.28;;;;;;;25.96;75.32;99109.53;5089878;28;20040;-69
2023/08/05 09:21:01;;;;;;;4.97;3.35;;;;;;;25.96;75.38;99104.06;5090084;28;20072;-70
2023/08/05 09:23:31;;;;;;;5.05;3.15;;;;;;;25.95;75.01;99094.19;5090508;28;20124;-70
2023/08/05 09:25:59;;;;;;;4.50;3.30;;;;;;;25.98;75.28;99096.50;5090150;28;20044;-70
2023/08/05 09:28:31;;;;;;;5.10;3.53;;;;;;;25.98;75.56;99088.31;5090069;28;20423;-70
2023/08/05 09:31:16;;;;;;;4.50;3.30;;;;;;;25.98;75.48;99077.38;5090376;28;20139;-69
2023/08/05 09:33:45;;;;;;;5.03;3.50;;;;;;;25.96;75.56;99077.59;5089464;28;20397;-68
2023/08/05 09:36:17;;;;;;;4.70;3.13;;;;;;;25.99;75.78;99084.50;5090036;28;20040;-70
2023/08/05 09:39:00;;;;;;;4.88;3.08;;;;;;;26.00;74.02;99086.19;5089712;28;20044;-67
2023/08/05 09:41:31;;;;;;;5.78;3.50;;;;;;;26.03;74.65;99079.44;5090033;28;20404;-67
2023/08/05 09:44:00;;;;;;;5.93;3.60;;;;;;;26.05;74.62;99072.69;5089850;28;20074;-67
2023/08/05 09:46:38;;;;;;;6.18;3.30;;;;;;;26.06;74.12;99077.13;5089552;28;20129;-68
2023/08/05 09:49:08;;;;;;;6.32;3.63;;;;;;;26.07;74.14;99076.06;5090075;28;20044;-67
2023/08/05 09:51:42;;;;;;;6.85;3.47;;;;;;;26.09;73.56;99070.38;5090128;28;20169;-68
2023/08/05 09:54:15;;;;;;;8.43;4.00;;;;;;;26.11;72.87;99070.97;5089428;28;20131;-68
2023/08/05 09:56:44;;;;;;;8.00;4.25;;;;;;;26.11;72.49;99055.41;5089565;28;20374;-68
2023/08/05 09:59:15;;;;;;;8.70;4.00;;;;;;;26.13;72.17;99061.50;5089610;28;20052;-66
2023/08/05 10:01:45;;;;;;;9.20;4.60;;;;;;;26.15;72.25;99059.41;5089897;28;20079;-68
2023/08/05 10:04:16;;;;;;;9.15;4.10;;;;;;;26.14;71.87;99054.97;5089872;28;20109;-67
2023/08/05 10:06:46;;;;;;;9.60;4.47;;;;;;;26.16;71.70;99063.81;5089712;28;20059;-68
2023/08/05 10:09:16;;;;;;;8.70;4.75;;;;;;;26.17;72.13;99068.19;5089600;28;20048;-67
2023/08/05 10:11:48;;;;;;;10.50;4.68;;;;;;;26.17;71.57;99075.56;5089862;28;20048;-69
2023/08/05 10:14:17;;;;;;;9.63;4.90;;;;;;;26.17;71.92;99079.13;5089455;28;20048;-68
2023/08/05 10:16:47;;;;;;;9.77;4.95;;;;;;;26.17;71.81;99076.41;5089813;28;20453;-66
2023/08/05 10:19:27;;;;;;;10.43;5.18;;;;;;;26.17;71.58;99073.66;5089592;28;20055;-67
2023/08/05 10:22:08;;;;;;;11.95;5.38;;;;;;;26.20;71.84;99075.13;5089639;28;20040;-68
2023/08/05 10:24:54;;;;;;;11.18;5.60;;;;;;;26.20;71.72;99070.47;5089038;28;20048;-67
2023/08/05 10:27:39;;;;;;;12.93;5.93;;;;;;;26.21;71.93;99066.69;5089405;28;20071;-70
2023/08/05 10:30:10;;;;;;;11.88;5.63;;;;;;;26.21;71.57;99069.41;5089636;28;20044;-67
2023/08/05 10:32:53;;;;;;;17.75;6.65;;;;;;;26.24;72.00;99081.78;5089581;28;20186;-68
2023/08/05 10:35:26;;;;;;;12.65;6.47;;;;;;;26.25;71.94;99073.41;5088019;28;20150;-67
2023/08/05 10:38:13;;;;;;;13.65;5.78;;;;;;;26.24;72.15;99058.03;5089564;28;20048;-67
2023/08/05 10:40:50;;;;;;;12.23;6.88;;;;;;;26.28;71.85;99061.19;5089326;28;20047;-67
2023/08/05 10:43:38;;;;;;;14.15;6.45;;;;;;;26.29;72.19;99057.38;5089480;28;20054;-67
2023/08/05 10:46:13;;;;;;;18.63;6.60;;;;;;;26.32;71.76;99061.56;5091077;28;20109;-66
2023/08/05 10:48:43;;;;;;;16.42;7.07;;;;;;;26.34;72.13;99070.38;5092845;28;20097;-67
2023/08/05 10:51:17;;;;;;;16.63;6.85;;;;;;;26.36;71.99;99065.53;5093252;28;20424;-67
2023/08/05 10:53:58;;;;;;;14.40;6.85;;;;;;;26.36;72.01;99068.28;5092943;28;20051;-67
2023/08/05 10:56:32;;;;;;;16.40;8.00;;;;;;;26.38;72.13;99060.72;5092722;28;20123;-67
2023/08/05 10:59:05;;;;;;;15.32;6.80;;;;;;;26.40;72.58;99064.88;5093033;28;20048;-65
2023/08/05 11:02:03;;;;;;;13.35;6.50;;;;;;;26.41;72.15;99063.00;5092618;28;20093;-66
2023/08/05 11:04:33;;;;;;;16.38;6.95;;;;;;;26.42;71.83;99056.47;5068631;28;20412;-66
2023/08/05 11:07:05;;;;;;;11.82;6.53;;;;;;;26.43;71.61;99041.72;5092727;28;20084;-65
2023/08/05 11:09:33;;;;;;;16.15;6.38;;;;;;;26.43;71.48;99039.81;5092551;28;20138;-67
2023/08/05 11:12:04;;;;;;;11.48;6.38;;;;;;;26.44;71.53;99049.72;5092709;28;20515;-66
2023/08/05 11:14:37;;;;;;;11.98;6.00;;;;;;;26.44;71.58;99051.59;5092538;28;20074;-66
2023/08/05 11:17:07;;;;;;;11.98;6.57;;;;;;;26.45;71.82;99056.03;5092645;28;20052;-66
2023/08/05 11:19:51;;;;;;;10.48;5.90;;;;;;;26.44;71.56;99062.53;5092768;28;20040;-67
2023/08/05 11:22:25;;;;;;;10.88;6.10;;;;;;;26.46;71.64;99060.44;5092427;28;20048;-67
2023/08/05 11:25:01;;;;;;;11.57;6.43;;;;;;;26.47;71.60;99064.84;5092116;28;20074;-66
2023/08/05 11:27:32;;;;;;;11.75;6.10;;;;;;;26.46;71.82;99063.16;5091982;28;20127;-67
2023/08/05 11:30:11;;;;;;;11.20;6.15;;;;;;;26.49;71.45;99073.66;5092401;28;20126;-67
2023/08/05 11:32:49;;;;;;;13.32;6.50;;;;;;;26.49;71.87;99079.13;5092164;28;20055;-67
2023/08/05 11:35:18;;;;;;;11.90;6.32;;;;;;;26.50;71.94;99075.31;5092243;28;20604;-65
2023/08/05 11:37:46;;;;;;;9.88;6.00;;;;;;;26.51;72.14;99066.06;5092109;28;20134;-67
2023/08/05 11:40:14;;;;;;;11.45;6.03;;;;;;;26.52;72.73;99068.56;5092430;28;20073;-66
2023/08/05 11:42:50;;;;;;;10.15;6.30;;;;;;;26.52;73.50;99076.75;5090697;28;20067;-66
2023/08/05 11:45:19;;;;;;;11.52;7.00;;;;;;;26.53;73.03;99074.88;5092047;28;20048;-68